Standard City, Illinois
Current Conditions -  °F | °C
As of 9:55 AM on Thursday 27 Nov 2014 (Local Time) from K3LF Reporting Station
Overcast Overcast  
Wind Chill: 17°   Ceiling: 2300
Heat Index: 27°   Visibility: 10mi
Dew Point: 20°   Wind: 12mph
Humidity: 75%   Direction: 320°NW
Pressure: 30.46"   Gusts: NA
Location:  39.35°N, 89.78°W
Report Text: K3LF 271555Z AUTO 32010KT 10SM OVC023 M03/M06 A3046 RMK AO2 T10261064
Loading
Personal Weather Stations






























Interactive Weather Map New forecast layout! Learn more

10-Day Weather Forecast

Advertisements
Track Severe Weather on mobile